sensor_id;sensor_type;location;lat;lon;timestamp;P1;durP1;ratioP1;P2;durP2;ratioP2
64419;SDS011;50745;48.170;14.516;2022-07-22T00:00:15;10.80;;;9.70;;
64419;SDS011;50745;48.170;14.516;2022-07-22T00:10:16;10.68;;;9.60;;
64419;SDS011;50745;48.170;14.516;2022-07-22T00:20:18;10.18;;;9.18;;
64419;SDS011;50745;48.170;14.516;2022-07-22T00:30:20;10.38;;;9.32;;
64419;SDS011;50745;48.170;14.516;2022-07-22T00:40:21;10.75;;;9.65;;
64419;SDS011;50745;48.170;14.516;2022-07-22T00:50:22;10.73;;;9.63;;
64419;SDS011;50745;48.170;14.516;2022-07-22T01:00:25;10.23;;;9.20;;
64419;SDS011;50745;48.170;14.516;2022-07-22T01:10:26;11.13;;;9.93;;
64419;SDS011;50745;48.170;14.516;2022-07-22T01:20:28;11.20;;;9.57;;
64419;SDS011;50745;48.170;14.516;2022-07-22T01:30:29;10.57;;;9.48;;
64419;SDS011;50745;48.170;14.516;2022-07-22T01:40:30;10.55;;;9.45;;
64419;SDS011;50745;48.170;14.516;2022-07-22T01:50:32;10.30;;;9.18;;
64419;SDS011;50745;48.170;14.516;2022-07-22T02:00:33;10.65;;;9.60;;
64419;SDS011;50745;48.170;14.516;2022-07-22T02:10:36;10.23;;;9.23;;
64419;SDS011;50745;48.170;14.516;2022-07-22T02:20:39;11.50;;;9.85;;
64419;SDS011;50745;48.170;14.516;2022-07-22T02:30:40;10.75;;;9.65;;
64419;SDS011;50745;48.170;14.516;2022-07-22T02:40:41;10.60;;;9.60;;
64419;SDS011;50745;48.170;14.516;2022-07-22T02:50:45;10.45;;;9.38;;
64419;SDS011;50745;48.170;14.516;2022-07-22T03:00:51;11.02;;;9.93;;
64419;SDS011;50745;48.170;14.516;2022-07-22T03:10:52;10.95;;;9.52;;
64419;SDS011;50745;48.170;14.516;2022-07-22T03:20:56;10.57;;;9.57;;
64419;SDS011;50745;48.170;14.516;2022-07-22T03:30:57;10.55;;;9.45;;
64419;SDS011;50745;48.170;14.516;2022-07-22T03:40:59;10.30;;;9.30;;
64419;SDS011;50745;48.170;14.516;2022-07-22T03:51:00;11.48;;;9.20;;
64419;SDS011;50745;48.170;14.516;2022-07-22T04:01:03;10.40;;;9.30;;
64419;SDS011;50745;48.170;14.516;2022-07-22T04:11:05;10.30;;;9.30;;
64419;SDS011;50745;48.170;14.516;2022-07-22T04:21:06;10.80;;;9.70;;
64419;SDS011;50745;48.170;14.516;2022-07-22T04:31:28;11.27;;;9.85;;
64419;SDS011;50745;48.170;14.516;2022-07-22T04:41:36;11.85;;;10.05;;
64419;SDS011;50745;48.170;14.516;2022-07-22T04:51:38;10.25;;;9.25;;
64419;SDS011;50745;48.170;14.516;2022-07-22T05:01:43;10.40;;;9.40;;
64419;SDS011;50745;48.170;14.516;2022-07-22T05:11:44;10.82;;;9.73;;
64419;SDS011;50745;48.170;14.516;2022-07-22T05:21:46;10.35;;;9.35;;
64419;SDS011;50745;48.170;14.516;2022-07-22T05:31:48;10.57;;;9.38;;
64419;SDS011;50745;48.170;14.516;2022-07-22T05:41:49;11.20;;;10.07;;
64419;SDS011;50745;48.170;14.516;2022-07-22T05:51:50;10.98;;;9.88;;
64419;SDS011;50745;48.170;14.516;2022-07-22T06:01:52;10.98;;;9.88;;
64419;SDS011;50745;48.170;14.516;2022-07-22T06:12:19;11.25;;;10.13;;
64419;SDS011;50745;48.170;14.516;2022-07-22T06:22:22;11.02;;;9.93;;
64419;SDS011;50745;48.170;14.516;2022-07-22T06:32:23;11.05;;;10.00;;
64419;SDS011;50745;48.170;14.516;2022-07-22T06:42:25;10.20;;;9.18;;
64419;SDS011;50745;48.170;14.516;2022-07-22T06:52:58;11.05;;;9.95;;
64419;SDS011;50745;48.170;14.516;2022-07-22T07:02:59;10.98;;;9.88;;
64419;SDS011;50745;48.170;14.516;2022-07-22T07:13:01;10.60;;;9.60;;
64419;SDS011;50745;48.170;14.516;2022-07-22T07:23:22;11.65;;;10.48;;
64419;SDS011;50745;48.170;14.516;2022-07-22T07:33:24;11.85;;;10.75;;
64419;SDS011;50745;48.170;14.516;2022-07-22T07:43:27;12.43;;;10.15;;
64419;SDS011;50745;48.170;14.516;2022-07-22T07:53:28;11.68;;;10.48;;
64419;SDS011;50745;48.170;14.516;2022-07-22T08:03:30;12.02;;;10.77;;
64419;SDS011;50745;48.170;14.516;2022-07-22T08:13:32;12.57;;;10.55;;
64419;SDS011;50745;48.170;14.516;2022-07-22T08:23:53;13.25;;;11.55;;
64419;SDS011;50745;48.170;14.516;2022-07-22T08:33:55;12.20;;;10.98;;
64419;SDS011;50745;48.170;14.516;2022-07-22T08:43:56;12.43;;;11.15;;
64419;SDS011;50745;48.170;14.516;2022-07-22T08:53:58;11.88;;;10.77;;
64419;SDS011;50745;48.170;14.516;2022-07-22T09:04:00;12.90;;;11.60;;
64419;SDS011;50745;48.170;14.516;2022-07-22T09:14:07;12.35;;;11.05;;
64419;SDS011;50745;48.170;14.516;2022-07-22T09:24:09;11.95;;;10.60;;
64419;SDS011;50745;48.170;14.516;2022-07-22T09:34:27;12.13;;;10.93;;
64419;SDS011;50745;48.170;14.516;2022-07-22T09:44:29;11.50;;;10.30;;
64419;SDS011;50745;48.170;14.516;2022-07-22T09:54:34;12.15;;;10.60;;
64419;SDS011;50745;48.170;14.516;2022-07-22T10:04:36;11.93;;;10.73;;
64419;SDS011;50745;48.170;14.516;2022-07-22T10:14:41;11.50;;;10.40;;
64419;SDS011;50745;48.170;14.516;2022-07-22T10:24:58;12.77;;;10.30;;
64419;SDS011;50745;48.170;14.516;2022-07-22T10:45:07;10.30;;;9.30;;
64419;SDS011;50745;48.170;14.516;2022-07-22T10:55:15;9.95;;;9.05;;
64419;SDS011;50745;48.170;14.516;2022-07-22T11:05:29;9.65;;;8.65;;
64419;SDS011;50745;48.170;14.516;2022-07-22T11:15:31;10.00;;;9.00;;
64419;SDS011;50745;48.170;14.516;2022-07-22T11:25:33;10.85;;;8.35;;
64419;SDS011;50745;48.170;14.516;2022-07-22T11:35:34;10.00;;;9.00;;
64419;SDS011;50745;48.170;14.516;2022-07-22T11:45:35;10.40;;;9.40;;
64419;SDS011;50745;48.170;14.516;2022-07-22T11:55:40;9.93;;;8.93;;
64419;SDS011;50745;48.170;14.516;2022-07-22T12:05:41;9.90;;;8.90;;
64419;SDS011;50745;48.170;14.516;2022-07-22T12:15:42;9.98;;;9.00;;
64419;SDS011;50745;48.170;14.516;2022-07-22T12:25:51;10.40;;;9.30;;
64419;SDS011;50745;48.170;14.516;2022-07-22T12:36:03;9.82;;;8.77;;
64419;SDS011;50745;48.170;14.516;2022-07-22T12:46:04;10.20;;;9.10;;
64419;SDS011;50745;48.170;14.516;2022-07-22T12:56:05;9.95;;;9.00;;
64419;SDS011;50745;48.170;14.516;2022-07-22T13:06:11;9.70;;;8.73;;
64419;SDS011;50745;48.170;14.516;2022-07-22T13:16:12;10.43;;;9.05;;
64419;SDS011;50745;48.170;14.516;2022-07-22T13:26:14;10.38;;;8.93;;
64419;SDS011;50745;48.170;14.516;2022-07-22T13:36:15;11.02;;;9.27;;
64419;SDS011;50745;48.170;14.516;2022-07-22T13:46:17;9.63;;;8.70;;
64419;SDS011;50745;48.170;14.516;2022-07-22T14:40:24;10.45;;;9.30;;
64419;SDS011;50745;48.170;14.516;2022-07-22T14:50:25;11.05;;;9.45;;
64419;SDS011;50745;48.170;14.516;2022-07-22T15:00:27;10.80;;;9.55;;
64419;SDS011;50745;48.170;14.516;2022-07-22T15:10:28;10.00;;;9.10;;
64419;SDS011;50745;48.170;14.516;2022-07-22T15:20:29;10.05;;;9.15;;
64419;SDS011;50745;48.170;14.516;2022-07-22T15:30:30;11.27;;;10.07;;
64419;SDS011;50745;48.170;14.516;2022-07-22T15:40:32;10.55;;;9.55;;
64419;SDS011;50745;48.170;14.516;2022-07-22T15:50:33;10.35;;;9.35;;
64419;SDS011;50745;48.170;14.516;2022-07-22T16:00:34;11.10;;;9.52;;
64419;SDS011;50745;48.170;14.516;2022-07-22T16:10:35;10.90;;;9.68;;
64419;SDS011;50745;48.170;14.516;2022-07-22T16:20:37;11.45;;;10.25;;
64419;SDS011;50745;48.170;14.516;2022-07-22T16:30:38;10.77;;;9.68;;
64419;SDS011;50745;48.170;14.516;2022-07-22T16:40:40;10.80;;;9.80;;
64419;SDS011;50745;48.170;14.516;2022-07-22T16:50:41;11.32;;;10.23;;
64419;SDS011;50745;48.170;14.516;2022-07-22T17:00:42;10.48;;;9.48;;
64419;SDS011;50745;48.170;14.516;2022-07-22T17:10:43;11.55;;;10.45;;
64419;SDS011;50745;48.170;14.516;2022-07-22T17:20:45;11.38;;;10.27;;
64419;SDS011;50745;48.170;14.516;2022-07-22T17:30:46;11.88;;;9.85;;
64419;SDS011;50745;48.170;14.516;2022-07-22T17:40:47;10.70;;;9.60;;
64419;SDS011;50745;48.170;14.516;2022-07-22T17:50:49;11.02;;;10.02;;
64419;SDS011;50745;48.170;14.516;2022-07-22T18:00:50;11.02;;;10.02;;
64419;SDS011;50745;48.170;14.516;2022-07-22T18:10:51;11.25;;;10.02;;
64419;SDS011;50745;48.170;14.516;2022-07-22T18:20:55;10.55;;;9.55;;
64419;SDS011;50745;48.170;14.516;2022-07-22T18:30:56;11.25;;;10.07;;
64419;SDS011;50745;48.170;14.516;2022-07-22T18:40:59;11.70;;;9.93;;
64419;SDS011;50745;48.170;14.516;2022-07-22T18:51:00;10.95;;;9.88;;
64419;SDS011;50745;48.170;14.516;2022-07-22T19:01:03;11.23;;;10.10;;
64419;SDS011;50745;48.170;14.516;2022-07-22T19:11:04;11.82;;;10.35;;
64419;SDS011;50745;48.170;14.516;2022-07-22T19:21:06;12.07;;;10.55;;
64419;SDS011;50745;48.170;14.516;2022-07-22T19:31:07;10.50;;;9.50;;
64419;SDS011;50745;48.170;14.516;2022-07-22T19:41:09;11.18;;;9.88;;
64419;SDS011;50745;48.170;14.516;2022-07-22T19:51:10;11.55;;;9.98;;
64419;SDS011;50745;48.170;14.516;2022-07-22T20:01:11;11.10;;;9.80;;
64419;SDS011;50745;48.170;14.516;2022-07-22T20:11:12;10.68;;;9.48;;
64419;SDS011;50745;48.170;14.516;2022-07-22T20:21:15;10.68;;;9.60;;
64419;SDS011;50745;48.170;14.516;2022-07-22T20:31:16;11.98;;;10.77;;
64419;SDS011;50745;48.170;14.516;2022-07-22T20:41:19;10.70;;;9.70;;
64419;SDS011;50745;48.170;14.516;2022-07-22T20:51:20;11.50;;;10.30;;
64419;SDS011;50745;48.170;14.516;2022-07-22T21:01:23;11.87;;;10.13;;
64419;SDS011;50745;48.170;14.516;2022-07-22T21:11:24;11.65;;;10.30;;
64419;SDS011;50745;48.170;14.516;2022-07-22T21:21:26;11.45;;;10.35;;
64419;SDS011;50745;48.170;14.516;2022-07-22T21:31:27;12.10;;;10.88;;
64419;SDS011;50745;48.170;14.516;2022-07-22T21:41:28;13.63;;;12.23;;
64419;SDS011;50745;48.170;14.516;2022-07-22T21:51:30;14.23;;;12.82;;
64419;SDS011;50745;48.170;14.516;2022-07-22T22:01:31;14.13;;;12.73;;
64419;SDS011;50745;48.170;14.516;2022-07-22T22:11:32;13.45;;;12.05;;
64419;SDS011;50745;48.170;14.516;2022-07-22T22:21:33;13.18;;;11.85;;
64419;SDS011;50745;48.170;14.516;2022-07-22T22:31:35;14.23;;;12.82;;
64419;SDS011;50745;48.170;14.516;2022-07-22T22:41:36;13.98;;;12.50;;
64419;SDS011;50745;48.170;14.516;2022-07-22T22:51:37;14.20;;;12.90;;
64419;SDS011;50745;48.170;14.516;2022-07-22T23:01:39;14.45;;;13.05;;
64419;SDS011;50745;48.170;14.516;2022-07-22T23:11:40;14.15;;;12.68;;
64419;SDS011;50745;48.170;14.516;2022-07-22T23:21:41;14.10;;;12.70;;
64419;SDS011;50745;48.170;14.516;2022-07-22T23:31:42;14.10;;;12.60;;
64419;SDS011;50745;48.170;14.516;2022-07-22T23:41:44;14.00;;;12.65;;
64419;SDS011;50745;48.170;14.516;2022-07-22T23:51:45;14.32;;;12.93;;
